sensor_id;sensor_type;location;lat;lon;timestamp;P1;durP1;ratioP1;P2;durP2;ratioP2
18499;SDS011;9379;52.134;11.576;2022-08-19T00:01:27;8.63;;;7.88;;
18499;SDS011;9379;52.134;11.576;2022-08-19T00:04:11;9.18;;;8.43;;
18499;SDS011;9379;52.134;11.576;2022-08-19T00:06:51;9.65;;;8.70;;
18499;SDS011;9379;52.134;11.576;2022-08-19T00:09:21;10.18;;;9.23;;
18499;SDS011;9379;52.134;11.576;2022-08-19T00:11:51;9.93;;;8.98;;
18499;SDS011;9379;52.134;11.576;2022-08-19T00:14:26;9.20;;;8.40;;
18499;SDS011;9379;52.134;11.576;2022-08-19T00:17:02;11.90;;;10.98;;
18499;SDS011;9379;52.134;11.576;2022-08-19T00:19:42;8.20;;;7.53;;
18499;SDS011;9379;52.134;11.576;2022-08-19T00:22:11;12.00;;;9.35;;
18499;SDS011;9379;52.134;11.576;2022-08-19T00:24:40;14.90;;;10.90;;
18499;SDS011;9379;52.134;11.576;2022-08-19T00:27:08;10.15;;;9.25;;
18499;SDS011;9379;52.134;11.576;2022-08-19T00:29:35;9.77;;;8.88;;
18499;SDS011;9379;52.134;11.576;2022-08-19T00:32:02;11.55;;;9.48;;
18499;SDS011;9379;52.134;11.576;2022-08-19T00:34:30;9.15;;;8.35;;
18499;SDS011;9379;52.134;11.576;2022-08-19T00:36:57;8.75;;;7.95;;
18499;SDS011;9379;52.134;11.576;2022-08-19T00:39:26;10.73;;;9.73;;
18499;SDS011;9379;52.134;11.576;2022-08-19T00:41:52;9.98;;;9.07;;
18499;SDS011;9379;52.134;11.576;2022-08-19T00:44:20;11.05;;;10.05;;
18499;SDS011;9379;52.134;11.576;2022-08-19T00:46:50;9.90;;;8.95;;
18499;SDS011;9379;52.134;11.576;2022-08-19T00:49:18;9.93;;;9.13;;
18499;SDS011;9379;52.134;11.576;2022-08-19T00:51:50;8.93;;;8.25;;
18499;SDS011;9379;52.134;11.576;2022-08-19T00:54:20;9.68;;;8.88;;
18499;SDS011;9379;52.134;11.576;2022-08-19T00:56:49;10.20;;;9.30;;
18499;SDS011;9379;52.134;11.576;2022-08-19T00:59:17;8.68;;;7.97;;
18499;SDS011;9379;52.134;11.576;2022-08-19T01:01:45;10.50;;;9.50;;
18499;SDS011;9379;52.134;11.576;2022-08-19T01:04:13;9.93;;;9.02;;
18499;SDS011;9379;52.134;11.576;2022-08-19T01:06:40;10.38;;;9.57;;
18499;SDS011;9379;52.134;11.576;2022-08-19T01:09:08;9.93;;;9.10;;
18499;SDS011;9379;52.134;11.576;2022-08-19T01:11:36;9.23;;;8.45;;
18499;SDS011;9379;52.134;11.576;2022-08-19T01:14:08;9.23;;;8.30;;
18499;SDS011;9379;52.134;11.576;2022-08-19T01:16:38;13.25;;;12.15;;
18499;SDS011;9379;52.134;11.576;2022-08-19T01:19:09;10.75;;;9.80;;
18499;SDS011;9379;52.134;11.576;2022-08-19T01:21:45;10.40;;;9.60;;
18499;SDS011;9379;52.134;11.576;2022-08-19T01:24:23;10.20;;;9.32;;
18499;SDS011;9379;52.134;11.576;2022-08-19T01:26:50;10.45;;;9.55;;
18499;SDS011;9379;52.134;11.576;2022-08-19T01:29:17;9.88;;;9.07;;
18499;SDS011;9379;52.134;11.576;2022-08-19T01:31:44;9.38;;;8.50;;
18499;SDS011;9379;52.134;11.576;2022-08-19T01:34:11;8.40;;;7.70;;
18499;SDS011;9379;52.134;11.576;2022-08-19T01:36:41;12.45;;;9.60;;
18499;SDS011;9379;52.134;11.576;2022-08-19T01:39:12;9.43;;;8.73;;
18499;SDS011;9379;52.134;11.576;2022-08-19T01:41:42;10.13;;;9.32;;
18499;SDS011;9379;52.134;11.576;2022-08-19T01:44:10;9.15;;;8.45;;
18499;SDS011;9379;52.134;11.576;2022-08-19T01:46:40;11.70;;;8.55;;
18499;SDS011;9379;52.134;11.576;2022-08-19T01:49:08;9.13;;;8.35;;
18499;SDS011;9379;52.134;11.576;2022-08-19T01:51:35;10.68;;;9.77;;
18499;SDS011;9379;52.134;11.576;2022-08-19T01:54:06;10.55;;;9.65;;
18499;SDS011;9379;52.134;11.576;2022-08-19T01:56:33;11.20;;;10.20;;
18499;SDS011;9379;52.134;11.576;2022-08-19T01:59:08;12.93;;;10.30;;
18499;SDS011;9379;52.134;11.576;2022-08-19T02:01:38;9.90;;;8.90;;
18499;SDS011;9379;52.134;11.576;2022-08-19T02:04:06;10.55;;;9.45;;
18499;SDS011;9379;52.134;11.576;2022-08-19T02:06:33;9.73;;;8.95;;
18499;SDS011;9379;52.134;11.576;2022-08-19T02:09:01;10.93;;;9.82;;
18499;SDS011;9379;52.134;11.576;2022-08-19T02:11:29;9.27;;;8.52;;
18499;SDS011;9379;52.134;11.576;2022-08-19T02:13:58;8.40;;;7.70;;
18499;SDS011;9379;52.134;11.576;2022-08-19T02:16:28;8.52;;;7.68;;
18499;SDS011;9379;52.134;11.576;2022-08-19T02:18:55;9.55;;;8.65;;
18499;SDS011;9379;52.134;11.576;2022-08-19T02:21:25;11.90;;;10.15;;
18499;SDS011;9379;52.134;11.576;2022-08-19T02:23:56;9.32;;;8.10;;
18499;SDS011;9379;52.134;11.576;2022-08-19T02:26:23;8.93;;;7.93;;
18499;SDS011;9379;52.134;11.576;2022-08-19T02:28:54;9.80;;;8.90;;
18499;SDS011;9379;52.134;11.576;2022-08-19T02:31:23;12.10;;;10.70;;
18499;SDS011;9379;52.134;11.576;2022-08-19T02:33:58;9.38;;;8.48;;
18499;SDS011;9379;52.134;11.576;2022-08-19T02:36:36;8.23;;;7.57;;
18499;SDS011;9379;52.134;11.576;2022-08-19T02:39:15;9.55;;;8.60;;
18499;SDS011;9379;52.134;11.576;2022-08-19T02:41:42;8.68;;;7.88;;
18499;SDS011;9379;52.134;11.576;2022-08-19T02:44:10;7.95;;;7.38;;
18499;SDS011;9379;52.134;11.576;2022-08-19T02:46:39;11.48;;;10.00;;
18499;SDS011;9379;52.134;11.576;2022-08-19T02:49:07;11.93;;;10.82;;
18499;SDS011;9379;52.134;11.576;2022-08-19T02:51:38;10.13;;;9.18;;
18499;SDS011;9379;52.134;11.576;2022-08-19T02:54:15;10.82;;;9.30;;
18499;SDS011;9379;52.134;11.576;2022-08-19T02:56:51;9.25;;;8.57;;
18499;SDS011;9379;52.134;11.576;2022-08-19T02:59:18;10.23;;;8.02;;
18499;SDS011;9379;52.134;11.576;2022-08-19T03:01:49;7.63;;;7.03;;
18499;SDS011;9379;52.134;11.576;2022-08-19T03:04:26;11.20;;;10.18;;
18499;SDS011;9379;52.134;11.576;2022-08-19T03:07:07;9.15;;;8.25;;
18499;SDS011;9379;52.134;11.576;2022-08-19T03:09:46;9.55;;;8.65;;
18499;SDS011;9379;52.134;11.576;2022-08-19T03:12:15;9.82;;;8.90;;
18499;SDS011;9379;52.134;11.576;2022-08-19T03:14:51;10.70;;;9.80;;
18499;SDS011;9379;52.134;11.576;2022-08-19T03:17:21;9.52;;;8.73;;
18499;SDS011;9379;52.134;11.576;2022-08-19T03:19:50;15.07;;;13.65;;
18499;SDS011;9379;52.134;11.576;2022-08-19T03:22:20;9.25;;;8.38;;
18499;SDS011;9379;52.134;11.576;2022-08-19T03:24:49;9.73;;;8.68;;
18499;SDS011;9379;52.134;11.576;2022-08-19T03:27:17;7.70;;;7.00;;
18499;SDS011;9379;52.134;11.576;2022-08-19T03:29:47;12.52;;;11.23;;
18499;SDS011;9379;52.134;11.576;2022-08-19T03:32:16;10.75;;;9.27;;
18499;SDS011;9379;52.134;11.576;2022-08-19T03:34:44;10.60;;;9.70;;
18499;SDS011;9379;52.134;11.576;2022-08-19T03:37:27;9.77;;;8.82;;
18499;SDS011;9379;52.134;11.576;2022-08-19T03:39:58;10.02;;;9.13;;
18499;SDS011;9379;52.134;11.576;2022-08-19T03:42:28;10.75;;;8.68;;
18499;SDS011;9379;52.134;11.576;2022-08-19T03:45:01;10.43;;;9.43;;
18499;SDS011;9379;52.134;11.576;2022-08-19T03:47:29;10.48;;;9.48;;
18499;SDS011;9379;52.134;11.576;2022-08-19T03:49:55;10.50;;;9.60;;
18499;SDS011;9379;52.134;11.576;2022-08-19T03:52:22;10.32;;;9.20;;
18499;SDS011;9379;52.134;11.576;2022-08-19T03:54:51;10.38;;;9.40;;
18499;SDS011;9379;52.134;11.576;2022-08-19T03:57:18;16.42;;;10.82;;
18499;SDS011;9379;52.134;11.576;2022-08-19T03:59:47;9.73;;;8.65;;
18499;SDS011;9379;52.134;11.576;2022-08-19T04:02:15;10.35;;;9.45;;
18499;SDS011;9379;52.134;11.576;2022-08-19T04:04:43;10.65;;;9.65;;
18499;SDS011;9379;52.134;11.576;2022-08-19T04:07:10;9.95;;;9.05;;
18499;SDS011;9379;52.134;11.576;2022-08-19T04:09:40;15.25;;;11.55;;
18499;SDS011;9379;52.134;11.576;2022-08-19T04:12:09;10.52;;;9.52;;
18499;SDS011;9379;52.134;11.576;2022-08-19T04:14:36;12.60;;;11.50;;
18499;SDS011;9379;52.134;11.576;2022-08-19T04:17:03;11.02;;;10.13;;
18499;SDS011;9379;52.134;11.576;2022-08-19T04:19:31;12.52;;;11.35;;
18499;SDS011;9379;52.134;11.576;2022-08-19T04:21:59;10.07;;;9.10;;
18499;SDS011;9379;52.134;11.576;2022-08-19T04:24:26;9.27;;;8.55;;
18499;SDS011;9379;52.134;11.576;2022-08-19T04:26:53;8.18;;;7.38;;
18499;SDS011;9379;52.134;11.576;2022-08-19T04:29:24;9.60;;;8.65;;
18499;SDS011;9379;52.134;11.576;2022-08-19T04:31:52;9.77;;;8.85;;
18499;SDS011;9379;52.134;11.576;2022-08-19T04:34:21;10.45;;;8.57;;
18499;SDS011;9379;52.134;11.576;2022-08-19T04:36:50;9.82;;;9.00;;
18499;SDS011;9379;52.134;11.576;2022-08-19T04:39:19;9.05;;;8.30;;
18499;SDS011;9379;52.134;11.576;2022-08-19T04:41:48;9.32;;;8.43;;
18499;SDS011;9379;52.134;11.576;2022-08-19T04:44:34;10.48;;;9.60;;
18499;SDS011;9379;52.134;11.576;2022-08-19T04:47:02;8.35;;;7.65;;
18499;SDS011;9379;52.134;11.576;2022-08-19T04:49:31;8.40;;;7.60;;
18499;SDS011;9379;52.134;11.576;2022-08-19T04:51:58;9.43;;;8.40;;
18499;SDS011;9379;52.134;11.576;2022-08-19T04:54:25;11.88;;;10.55;;
18499;SDS011;9379;52.134;11.576;2022-08-19T04:56:53;9.52;;;8.70;;
18499;SDS011;9379;52.134;11.576;2022-08-19T07:52:37;9.80;;;8.93;;
18499;SDS011;9379;52.134;11.576;2022-08-19T07:55:05;9.80;;;8.82;;
18499;SDS011;9379;52.134;11.576;2022-08-19T07:57:33;12.65;;;10.32;;
18499;SDS011;9379;52.134;11.576;2022-08-19T08:00:00;11.77;;;10.63;;
18499;SDS011;9379;52.134;11.576;2022-08-19T08:02:27;10.98;;;9.95;;
18499;SDS011;9379;52.134;11.576;2022-08-19T08:04:54;10.85;;;9.82;;
18499;SDS011;9379;52.134;11.576;2022-08-19T08:07:40;8.95;;;7.82;;
18499;SDS011;9379;52.134;11.576;2022-08-19T08:10:24;9.30;;;8.48;;
18499;SDS011;9379;52.134;11.576;2022-08-19T08:12:51;10.18;;;9.27;;
18499;SDS011;9379;52.134;11.576;2022-08-19T08:15:20;9.05;;;8.20;;
18499;SDS011;9379;52.134;11.576;2022-08-19T08:17:47;11.52;;;10.43;;
18499;SDS011;9379;52.134;11.576;2022-08-19T08:20:14;14.02;;;11.65;;
18499;SDS011;9379;52.134;11.576;2022-08-19T08:22:46;9.82;;;8.98;;
18499;SDS011;9379;52.134;11.576;2022-08-19T08:25:31;8.43;;;7.50;;
18499;SDS011;9379;52.134;11.576;2022-08-19T08:28:00;11.73;;;9.88;;
18499;SDS011;9379;52.134;11.576;2022-08-19T08:30:29;13.40;;;12.05;;
18499;SDS011;9379;52.134;11.576;2022-08-19T08:32:57;11.93;;;10.63;;
18499;SDS011;9379;52.134;11.576;2022-08-19T08:35:24;11.30;;;9.73;;
18499;SDS011;9379;52.134;11.576;2022-08-19T08:37:53;11.80;;;8.13;;
18499;SDS011;9379;52.134;11.576;2022-08-19T08:40:22;10.30;;;8.20;;
18499;SDS011;9379;52.134;11.576;2022-08-19T08:42:55;8.23;;;7.43;;
18499;SDS011;9379;52.134;11.576;2022-08-19T08:45:27;11.43;;;8.10;;
18499;SDS011;9379;52.134;11.576;2022-08-19T08:47:57;6.68;;;6.07;;
18499;SDS011;9379;52.134;11.576;2022-08-19T08:50:29;8.27;;;6.00;;
18499;SDS011;9379;52.134;11.576;2022-08-19T08:53:03;8.88;;;7.90;;
18499;SDS011;9379;52.134;11.576;2022-08-19T08:55:32;7.18;;;6.18;;
18499;SDS011;9379;52.134;11.576;2022-08-19T08:58:00;7.15;;;6.55;;
18499;SDS011;9379;52.134;11.576;2022-08-19T09:00:32;7.03;;;6.43;;
18499;SDS011;9379;52.134;11.576;2022-08-19T09:03:00;6.07;;;5.50;;
18499;SDS011;9379;52.134;11.576;2022-08-19T09:05:36;6.28;;;5.68;;
18499;SDS011;9379;52.134;11.576;2022-08-19T09:08:13;9.50;;;6.28;;
18499;SDS011;9379;52.134;11.576;2022-08-19T09:10:49;6.47;;;5.78;;
18499;SDS011;9379;52.134;11.576;2022-08-19T09:13:21;6.80;;;6.03;;
18499;SDS011;9379;52.134;11.576;2022-08-19T09:15:56;6.28;;;5.63;;
18499;SDS011;9379;52.134;11.576;2022-08-19T09:18:38;6.13;;;5.50;;
18499;SDS011;9379;52.134;11.576;2022-08-19T09:21:06;9.95;;;6.90;;
18499;SDS011;9379;52.134;11.576;2022-08-19T09:23:36;5.65;;;5.15;;
18499;SDS011;9379;52.134;11.576;2022-08-19T09:26:06;7.60;;;5.50;;
18499;SDS011;9379;52.134;11.576;2022-08-19T09:28:35;6.82;;;5.95;;
18499;SDS011;9379;52.134;11.576;2022-08-19T09:31:03;8.32;;;6.90;;
18499;SDS011;9379;52.134;11.576;2022-08-19T09:33:30;6.45;;;5.75;;
18499;SDS011;9379;52.134;11.576;2022-08-19T09:36:05;9.45;;;8.55;;
18499;SDS011;9379;52.134;11.576;2022-08-19T09:38:35;6.90;;;6.15;;
18499;SDS011;9379;52.134;11.576;2022-08-19T09:41:04;7.70;;;7.05;;
18499;SDS011;9379;52.134;11.576;2022-08-19T09:43:33;6.13;;;5.63;;
18499;SDS011;9379;52.134;11.576;2022-08-19T09:46:01;6.30;;;5.72;;
18499;SDS011;9379;52.134;11.576;2022-08-19T09:48:30;8.35;;;6.90;;
18499;SDS011;9379;52.134;11.576;2022-08-19T09:51:02;7.60;;;6.90;;
18499;SDS011;9379;52.134;11.576;2022-08-19T09:53:30;9.48;;;7.22;;
18499;SDS011;9379;52.134;11.576;2022-08-19T09:55:58;7.75;;;6.65;;
18499;SDS011;9379;52.134;11.576;2022-08-19T09:58:25;6.63;;;6.03;;
18499;SDS011;9379;52.134;11.576;2022-08-19T10:00:54;7.10;;;6.43;;
18499;SDS011;9379;52.134;11.576;2022-08-19T10:03:21;6.15;;;5.65;;
18499;SDS011;9379;52.134;11.576;2022-08-19T10:05:49;8.95;;;7.45;;
18499;SDS011;9379;52.134;11.576;2022-08-19T10:08:17;8.32;;;7.18;;
18499;SDS011;9379;52.134;11.576;2022-08-19T10:10:47;6.60;;;5.93;;
18499;SDS011;9379;52.134;11.576;2022-08-19T10:13:17;7.53;;;6.90;;
18499;SDS011;9379;52.134;11.576;2022-08-19T10:15:46;6.28;;;5.68;;
18499;SDS011;9379;52.134;11.576;2022-08-19T10:18:16;12.82;;;11.38;;
18499;SDS011;9379;52.134;11.576;2022-08-19T10:20:44;9.63;;;8.65;;
18499;SDS011;9379;52.134;11.576;2022-08-19T10:23:11;8.65;;;7.95;;
18499;SDS011;9379;52.134;11.576;2022-08-19T10:25:39;7.32;;;6.68;;
18499;SDS011;9379;52.134;11.576;2022-08-19T10:28:06;8.13;;;6.80;;
18499;SDS011;9379;52.134;11.576;2022-08-19T10:30:35;13.15;;;8.73;;
18499;SDS011;9379;52.134;11.576;2022-08-19T10:33:02;9.85;;;8.88;;
18499;SDS011;9379;52.134;11.576;2022-08-19T10:35:30;12.32;;;9.38;;
18499;SDS011;9379;52.134;11.576;2022-08-19T10:37:57;7.60;;;6.80;;
18499;SDS011;9379;52.134;11.576;2022-08-19T10:40:26;13.65;;;10.13;;
18499;SDS011;9379;52.134;11.576;2022-08-19T10:42:55;7.57;;;6.85;;
18499;SDS011;9379;52.134;11.576;2022-08-19T10:45:22;10.30;;;9.35;;
18499;SDS011;9379;52.134;11.576;2022-08-19T10:47:52;9.00;;;8.20;;
18499;SDS011;9379;52.134;11.576;2022-08-19T10:50:19;10.07;;;8.77;;
18499;SDS011;9379;52.134;11.576;2022-08-19T10:53:05;8.05;;;7.35;;
18499;SDS011;9379;52.134;11.576;2022-08-19T10:55:50;6.85;;;5.60;;
18499;SDS011;9379;52.134;11.576;2022-08-19T10:58:34;7.35;;;6.65;;
18499;SDS011;9379;52.134;11.576;2022-08-19T11:01:02;8.07;;;7.25;;
18499;SDS011;9379;52.134;11.576;2022-08-19T11:03:30;9.45;;;6.57;;
18499;SDS011;9379;52.134;11.576;2022-08-19T11:05:58;9.73;;;8.32;;
18499;SDS011;9379;52.134;11.576;2022-08-19T11:08:26;15.25;;;8.68;;
18499;SDS011;9379;52.134;11.576;2022-08-19T11:10:53;10.35;;;7.25;;
18499;SDS011;9379;52.134;11.576;2022-08-19T11:13:25;7.22;;;6.53;;
18499;SDS011;9379;52.134;11.576;2022-08-19T11:15:57;8.40;;;7.60;;
18499;SDS011;9379;52.134;11.576;2022-08-19T11:18:24;8.57;;;7.22;;
18499;SDS011;9379;52.134;11.576;2022-08-19T11:20:53;8.98;;;7.22;;
18499;SDS011;9379;52.134;11.576;2022-08-19T11:23:24;9.23;;;5.50;;
18499;SDS011;9379;52.134;11.576;2022-08-19T11:25:51;6.75;;;6.22;;
18499;SDS011;9379;52.134;11.576;2022-08-19T11:28:18;7.13;;;6.47;;
18499;SDS011;9379;52.134;11.576;2022-08-19T11:30:48;6.75;;;6.15;;
18499;SDS011;9379;52.134;11.576;2022-08-19T11:33:17;6.38;;;5.78;;
18499;SDS011;9379;52.134;11.576;2022-08-19T11:35:47;8.55;;;7.72;;
18499;SDS011;9379;52.134;11.576;2022-08-19T11:38:19;7.68;;;6.97;;
18499;SDS011;9379;52.134;11.576;2022-08-19T11:40:53;8.20;;;7.40;;
18499;SDS011;9379;52.134;11.576;2022-08-19T11:43:38;7.05;;;6.20;;
18499;SDS011;9379;52.134;11.576;2022-08-19T11:46:13;7.35;;;6.63;;
18499;SDS011;9379;52.134;11.576;2022-08-19T11:48:54;7.60;;;7.00;;
18499;SDS011;9379;52.134;11.576;2022-08-19T11:51:22;8.13;;;7.30;;
18499;SDS011;9379;52.134;11.576;2022-08-19T11:53:53;7.78;;;6.88;;
18499;SDS011;9379;52.134;11.576;2022-08-19T11:56:21;6.65;;;6.05;;
18499;SDS011;9379;52.134;11.576;2022-08-19T11:58:50;7.32;;;6.60;;
18499;SDS011;9379;52.134;11.576;2022-08-19T12:01:19;6.45;;;5.95;;
18499;SDS011;9379;52.134;11.576;2022-08-19T12:03:53;6.05;;;5.35;;
18499;SDS011;9379;52.134;11.576;2022-08-19T12:06:24;6.40;;;5.90;;
18499;SDS011;9379;52.134;11.576;2022-08-19T12:08:56;7.00;;;5.97;;
18499;SDS011;9379;52.134;11.576;2022-08-19T12:11:26;6.97;;;5.88;;
18499;SDS011;9379;52.134;11.576;2022-08-19T12:14:22;6.25;;;5.60;;
18499;SDS011;9379;52.134;11.576;2022-08-19T12:16:52;5.65;;;5.15;;
18499;SDS011;9379;52.134;11.576;2022-08-19T12:19:19;6.68;;;6.05;;
18499;SDS011;9379;52.134;11.576;2022-08-19T12:21:46;6.55;;;5.90;;
18499;SDS011;9379;52.134;11.576;2022-08-19T12:24:14;5.30;;;4.80;;
18499;SDS011;9379;52.134;11.576;2022-08-19T12:26:51;5.97;;;4.72;;
18499;SDS011;9379;52.134;11.576;2022-08-19T12:29:23;6.13;;;5.63;;
18499;SDS011;9379;52.134;11.576;2022-08-19T12:31:54;5.50;;;5.07;;
18499;SDS011;9379;52.134;11.576;2022-08-19T12:34:26;5.53;;;5.10;;
18499;SDS011;9379;52.134;11.576;2022-08-19T12:36:55;5.13;;;4.78;;
18499;SDS011;9379;52.134;11.576;2022-08-19T12:39:23;6.63;;;6.03;;
18499;SDS011;9379;52.134;11.576;2022-08-19T12:41:50;4.35;;;3.95;;
18499;SDS011;9379;52.134;11.576;2022-08-19T12:44:20;6.50;;;6.00;;
18499;SDS011;9379;52.134;11.576;2022-08-19T12:46:50;5.90;;;5.38;;
18499;SDS011;9379;52.134;11.576;2022-08-19T12:49:20;8.93;;;6.63;;
18499;SDS011;9379;52.134;11.576;2022-08-19T12:51:47;5.05;;;4.63;;
18499;SDS011;9379;52.134;11.576;2022-08-19T12:54:19;5.05;;;4.65;;
18499;SDS011;9379;52.134;11.576;2022-08-19T12:56:51;5.15;;;4.75;;
18499;SDS011;9379;52.134;11.576;2022-08-19T12:59:21;5.10;;;4.60;;
18499;SDS011;9379;52.134;11.576;2022-08-19T13:01:48;5.93;;;5.32;;
18499;SDS011;9379;52.134;11.576;2022-08-19T13:04:17;7.65;;;5.68;;
18499;SDS011;9379;52.134;11.576;2022-08-19T13:06:47;6.05;;;5.32;;
18499;SDS011;9379;52.134;11.576;2022-08-19T13:09:16;4.22;;;3.63;;
18499;SDS011;9379;52.134;11.576;2022-08-19T13:11:49;4.85;;;4.32;;
18499;SDS011;9379;52.134;11.576;2022-08-19T13:14:17;4.55;;;4.10;;
18499;SDS011;9379;52.134;11.576;2022-08-19T13:16:46;4.47;;;4.10;;
18499;SDS011;9379;52.134;11.576;2022-08-19T13:19:13;5.38;;;4.88;;
18499;SDS011;9379;52.134;11.576;2022-08-19T13:21:39;5.43;;;4.93;;
18499;SDS011;9379;52.134;11.576;2022-08-19T13:24:06;6.07;;;5.68;;
18499;SDS011;9379;52.134;11.576;2022-08-19T13:26:33;5.03;;;4.63;;
18499;SDS011;9379;52.134;11.576;2022-08-19T13:29:02;5.57;;;5.13;;
18499;SDS011;9379;52.134;11.576;2022-08-19T13:31:54;8.18;;;6.13;;
18499;SDS011;9379;52.134;11.576;2022-08-19T13:34:38;16.52;;;7.45;;
18499;SDS011;9379;52.134;11.576;2022-08-19T13:37:05;6.05;;;5.47;;
18499;SDS011;9379;52.134;11.576;2022-08-19T13:39:32;6.72;;;5.85;;
18499;SDS011;9379;52.134;11.576;2022-08-19T13:42:01;4.07;;;3.60;;
18499;SDS011;9379;52.134;11.576;2022-08-19T13:44:30;4.82;;;4.50;;
18499;SDS011;9379;52.134;11.576;2022-08-19T13:46:59;5.32;;;4.93;;
18499;SDS011;9379;52.134;11.576;2022-08-19T13:49:31;6.18;;;5.68;;
18499;SDS011;9379;52.134;11.576;2022-08-19T13:51:59;4.93;;;4.63;;
18499;SDS011;9379;52.134;11.576;2022-08-19T13:54:25;6.00;;;4.45;;
18499;SDS011;9379;52.134;11.576;2022-08-19T13:56:53;4.88;;;4.47;;
18499;SDS011;9379;52.134;11.576;2022-08-19T13:59:20;6.85;;;6.25;;
18499;SDS011;9379;52.134;11.576;2022-08-19T14:01:48;4.50;;;4.20;;
18499;SDS011;9379;52.134;11.576;2022-08-19T14:04:15;6.38;;;5.25;;
18499;SDS011;9379;52.134;11.576;2022-08-19T14:06:42;8.45;;;5.30;;
18499;SDS011;9379;52.134;11.576;2022-08-19T14:09:12;8.20;;;5.38;;
18499;SDS011;9379;52.134;11.576;2022-08-19T14:11:39;7.03;;;5.50;;
18499;SDS011;9379;52.134;11.576;2022-08-19T14:14:06;6.15;;;5.65;;
18499;SDS011;9379;52.134;11.576;2022-08-19T14:16:32;5.35;;;4.82;;
18499;SDS011;9379;52.134;11.576;2022-08-19T14:19:01;6.80;;;5.43;;
18499;SDS011;9379;52.134;11.576;2022-08-19T14:21:28;5.00;;;4.40;;
18499;SDS011;9379;52.134;11.576;2022-08-19T14:23:55;5.18;;;4.78;;
18499;SDS011;9379;52.134;11.576;2022-08-19T14:26:22;5.40;;;4.90;;
18499;SDS011;9379;52.134;11.576;2022-08-19T14:28:49;4.93;;;4.53;;
18499;SDS011;9379;52.134;11.576;2022-08-19T14:31:17;12.38;;;4.47;;
18499;SDS011;9379;52.134;11.576;2022-08-19T14:33:46;5.00;;;4.53;;
18499;SDS011;9379;52.134;11.576;2022-08-19T14:36:16;4.63;;;4.22;;
18499;SDS011;9379;52.134;11.576;2022-08-19T14:38:44;3.78;;;3.47;;
18499;SDS011;9379;52.134;11.576;2022-08-19T14:41:16;4.05;;;3.75;;
18499;SDS011;9379;52.134;11.576;2022-08-19T14:43:45;4.57;;;4.25;;
18499;SDS011;9379;52.134;11.576;2022-08-19T14:46:15;3.50;;;3.20;;
18499;SDS011;9379;52.134;11.576;2022-08-19T14:48:45;3.97;;;3.67;;
18499;SDS011;9379;52.134;11.576;2022-08-19T14:51:12;4.20;;;3.90;;
18499;SDS011;9379;52.134;11.576;2022-08-19T14:53:41;5.20;;;4.63;;
18499;SDS011;9379;52.134;11.576;2022-08-19T14:56:08;3.45;;;3.17;;
18499;SDS011;9379;52.134;11.576;2022-08-19T14:58:40;4.72;;;4.32;;
18499;SDS011;9379;52.134;11.576;2022-08-19T15:01:08;4.20;;;3.78;;
18499;SDS011;9379;52.134;11.576;2022-08-19T15:03:37;4.03;;;3.63;;
18499;SDS011;9379;52.134;11.576;2022-08-19T15:06:11;4.70;;;4.30;;
18499;SDS011;9379;52.134;11.576;2022-08-19T15:08:39;4.40;;;4.00;;
18499;SDS011;9379;52.134;11.576;2022-08-19T15:11:10;4.25;;;3.90;;
18499;SDS011;9379;52.134;11.576;2022-08-19T15:13:39;4.13;;;3.65;;
18499;SDS011;9379;52.134;11.576;2022-08-19T15:16:12;3.88;;;3.35;;
18499;SDS011;9379;52.134;11.576;2022-08-19T15:18:44;4.80;;;3.97;;
18499;SDS011;9379;52.134;11.576;2022-08-19T15:21:16;4.50;;;4.10;;
18499;SDS011;9379;52.134;11.576;2022-08-19T15:23:45;3.83;;;3.53;;
18499;SDS011;9379;52.134;11.576;2022-08-19T15:26:19;4.38;;;3.97;;
18499;SDS011;9379;52.134;11.576;2022-08-19T15:28:49;4.82;;;4.43;;
18499;SDS011;9379;52.134;11.576;2022-08-19T15:31:17;3.92;;;3.50;;
18499;SDS011;9379;52.134;11.576;2022-08-19T15:33:46;4.82;;;4.38;;
18499;SDS011;9379;52.134;11.576;2022-08-19T15:36:22;4.50;;;3.50;;
18499;SDS011;9379;52.134;11.576;2022-08-19T15:38:51;5.20;;;4.80;;
18499;SDS011;9379;52.134;11.576;2022-08-19T15:41:20;4.32;;;3.92;;
18499;SDS011;9379;52.134;11.576;2022-08-19T15:43:49;3.45;;;3.22;;
18499;SDS011;9379;52.134;11.576;2022-08-19T15:46:22;3.63;;;3.38;;
18499;SDS011;9379;52.134;11.576;2022-08-19T15:48:51;4.05;;;3.63;;
18499;SDS011;9379;52.134;11.576;2022-08-19T15:51:20;4.03;;;3.72;;
18499;SDS011;9379;52.134;11.576;2022-08-19T15:53:49;5.00;;;4.60;;
18499;SDS011;9379;52.134;11.576;2022-08-19T15:56:20;4.18;;;3.88;;
18499;SDS011;9379;52.134;11.576;2022-08-19T15:58:49;3.75;;;3.45;;
18499;SDS011;9379;52.134;11.576;2022-08-19T16:01:35;4.82;;;4.43;;
18499;SDS011;9379;52.134;11.576;2022-08-19T16:04:19;5.03;;;4.55;;
18499;SDS011;9379;52.134;11.576;2022-08-19T16:07:03;4.10;;;3.70;;
18499;SDS011;9379;52.134;11.576;2022-08-19T16:09:35;12.30;;;5.10;;
18499;SDS011;9379;52.134;11.576;2022-08-19T16:12:06;4.47;;;3.97;;
18499;SDS011;9379;52.134;11.576;2022-08-19T16:14:38;4.80;;;4.20;;
18499;SDS011;9379;52.134;11.576;2022-08-19T16:17:12;4.10;;;3.70;;
18499;SDS011;9379;52.134;11.576;2022-08-19T16:19:48;3.92;;;3.53;;
18499;SDS011;9379;52.134;11.576;2022-08-19T16:22:19;4.10;;;3.60;;
18499;SDS011;9379;52.134;11.576;2022-08-19T16:24:46;3.65;;;3.45;;
18499;SDS011;9379;52.134;11.576;2022-08-19T16:27:20;5.20;;;3.50;;
18499;SDS011;9379;52.134;11.576;2022-08-19T16:29:50;3.55;;;3.25;;
18499;SDS011;9379;52.134;11.576;2022-08-19T16:32:19;3.67;;;3.40;;
18499;SDS011;9379;52.134;11.576;2022-08-19T16:34:51;3.55;;;3.25;;
18499;SDS011;9379;52.134;11.576;2022-08-19T16:37:22;3.80;;;3.50;;
18499;SDS011;9379;52.134;11.576;2022-08-19T16:39:50;2.97;;;2.78;;
18499;SDS011;9379;52.134;11.576;2022-08-19T16:42:16;3.55;;;3.25;;
18499;SDS011;9379;52.134;11.576;2022-08-19T16:44:46;5.32;;;3.13;;
18499;SDS011;9379;52.134;11.576;2022-08-19T16:47:13;3.30;;;3.08;;
18499;SDS011;9379;52.134;11.576;2022-08-19T16:49:41;3.72;;;3.03;;
18499;SDS011;9379;52.134;11.576;2022-08-19T16:52:15;4.28;;;3.97;;
18499;SDS011;9379;52.134;11.576;2022-08-19T16:54:42;3.50;;;3.20;;
18499;SDS011;9379;52.134;11.576;2022-08-19T16:57:13;3.90;;;3.25;;
18499;SDS011;9379;52.134;11.576;2022-08-19T16:59:41;2.88;;;2.67;;
18499;SDS011;9379;52.134;11.576;2022-08-19T17:02:12;3.65;;;3.35;;
18499;SDS011;9379;52.134;11.576;2022-08-19T17:04:39;3.45;;;3.22;;
18499;SDS011;9379;52.134;11.576;2022-08-19T17:07:10;3.88;;;3.50;;
18499;SDS011;9379;52.134;11.576;2022-08-19T17:09:39;4.18;;;3.88;;
18499;SDS011;9379;52.134;11.576;2022-08-19T17:12:09;4.75;;;4.35;;
18499;SDS011;9379;52.134;11.576;2022-08-19T17:14:36;5.60;;;5.05;;
18499;SDS011;9379;52.134;11.576;2022-08-19T17:17:03;5.72;;;4.68;;
18499;SDS011;9379;52.134;11.576;2022-08-19T17:19:32;4.80;;;4.10;;
18499;SDS011;9379;52.134;11.576;2022-08-19T17:21:59;4.97;;;4.57;;
18499;SDS011;9379;52.134;11.576;2022-08-19T17:24:26;4.57;;;4.18;;
18499;SDS011;9379;52.134;11.576;2022-08-19T17:27:00;3.83;;;3.50;;
18499;SDS011;9379;52.134;11.576;2022-08-19T17:29:29;4.32;;;4.00;;
18499;SDS011;9379;52.134;11.576;2022-08-19T17:31:57;3.63;;;3.35;;
18499;SDS011;9379;52.134;11.576;2022-08-19T17:34:24;3.25;;;2.97;;
18499;SDS011;9379;52.134;11.576;2022-08-19T17:36:53;4.18;;;3.53;;
18499;SDS011;9379;52.134;11.576;2022-08-19T17:39:21;5.32;;;4.82;;
18499;SDS011;9379;52.134;11.576;2022-08-19T17:41:58;8.35;;;5.00;;
18499;SDS011;9379;52.134;11.576;2022-08-19T17:44:27;4.78;;;4.38;;
18499;SDS011;9379;52.134;11.576;2022-08-19T17:46:57;4.80;;;4.40;;
18499;SDS011;9379;52.134;11.576;2022-08-19T17:49:27;3.90;;;3.60;;
18499;SDS011;9379;52.134;11.576;2022-08-19T17:52:09;6.95;;;3.88;;
18499;SDS011;9379;52.134;11.576;2022-08-19T17:54:37;6.60;;;4.45;;